sensor_id;sensor_type;location;lat;lon;timestamp;temperature;humidity
44729;DHT22;30457;53.590;9.922;2023-04-29T00:02:28;13.40;56.10
44729;DHT22;30457;53.590;9.922;2023-04-29T00:06:54;13.40;56.40
44729;DHT22;30457;53.590;9.922;2023-04-29T00:11:20;13.40;56.30
44729;DHT22;30457;53.590;9.922;2023-04-29T00:15:45;13.40;56.40
44729;DHT22;30457;53.590;9.922;2023-04-29T00:20:11;13.40;56.40
44729;DHT22;30457;53.590;9.922;2023-04-29T00:24:37;13.40;56.60
44729;DHT22;30457;53.590;9.922;2023-04-29T00:29:02;13.30;56.30
44729;DHT22;30457;53.590;9.922;2023-04-29T00:33:28;13.30;56.50
44729;DHT22;30457;53.590;9.922;2023-04-29T00:37:54;13.30;56.60
44729;DHT22;30457;53.590;9.922;2023-04-29T00:42:19;13.30;56.60
44729;DHT22;30457;53.590;9.922;2023-04-29T00:46:45;13.30;56.60
44729;DHT22;30457;53.590;9.922;2023-04-29T00:51:11;13.30;56.90
44729;DHT22;30457;53.590;9.922;2023-04-29T00:55:38;13.30;56.90
44729;DHT22;30457;53.590;9.922;2023-04-29T01:00:04;13.30;56.90
44729;DHT22;30457;53.590;9.922;2023-04-29T01:04:30;13.30;56.70
44729;DHT22;30457;53.590;9.922;2023-04-29T01:09:24;13.30;56.80
44729;DHT22;30457;53.590;9.922;2023-04-29T01:13:58;13.30;57.30
44729;DHT22;30457;53.590;9.922;2023-04-29T01:18:35;13.30;57.10
44729;DHT22;30457;53.590;9.922;2023-04-29T01:23:01;13.30;56.70
44729;DHT22;30457;53.590;9.922;2023-04-29T01:27:41;13.30;56.60
44729;DHT22;30457;53.590;9.922;2023-04-29T01:32:17;13.30;57.20
44729;DHT22;30457;53.590;9.922;2023-04-29T01:41:41;13.30;57.00
44729;DHT22;30457;53.590;9.922;2023-04-29T01:46:15;13.30;57.10
44729;DHT22;30457;53.590;9.922;2023-04-29T01:50:43;13.30;57.20
44729;DHT22;30457;53.590;9.922;2023-04-29T01:55:13;13.30;56.50
44729;DHT22;30457;53.590;9.922;2023-04-29T01:59:49;13.30;56.50
44729;DHT22;30457;53.590;9.922;2023-04-29T02:04:33;13.30;56.50
44729;DHT22;30457;53.590;9.922;2023-04-29T02:08:59;13.30;56.50
44729;DHT22;30457;53.590;9.922;2023-04-29T02:13:25;13.30;56.60
44729;DHT22;30457;53.590;9.922;2023-04-29T02:17:51;13.30;56.60
44729;DHT22;30457;53.590;9.922;2023-04-29T02:22:19;13.30;56.50
44729;DHT22;30457;53.590;9.922;2023-04-29T02:26:45;13.30;56.40
44729;DHT22;30457;53.590;9.922;2023-04-29T02:31:10;13.30;56.50
44729;DHT22;30457;53.590;9.922;2023-04-29T02:35:36;13.30;56.60
44729;DHT22;30457;53.590;9.922;2023-04-29T02:40:02;13.30;56.60
44729;DHT22;30457;53.590;9.922;2023-04-29T02:44:29;13.20;56.60
44729;DHT22;30457;53.590;9.922;2023-04-29T02:48:55;13.20;56.60
44729;DHT22;30457;53.590;9.922;2023-04-29T02:53:21;13.20;56.60
44729;DHT22;30457;53.590;9.922;2023-04-29T02:57:47;13.20;56.70
44729;DHT22;30457;53.590;9.922;2023-04-29T03:02:13;13.20;56.70
44729;DHT22;30457;53.590;9.922;2023-04-29T03:06:39;13.20;56.70
44729;DHT22;30457;53.590;9.922;2023-04-29T03:11:05;13.20;56.70
44729;DHT22;30457;53.590;9.922;2023-04-29T03:15:31;13.20;56.70
44729;DHT22;30457;53.590;9.922;2023-04-29T03:19:56;13.10;56.60
44729;DHT22;30457;53.590;9.922;2023-04-29T03:24:22;13.10;56.70
44729;DHT22;30457;53.590;9.922;2023-04-29T03:28:48;13.10;56.80
44729;DHT22;30457;53.590;9.922;2023-04-29T03:33:13;13.10;57.30
44729;DHT22;30457;53.590;9.922;2023-04-29T03:37:39;13.10;56.60
44729;DHT22;30457;53.590;9.922;2023-04-29T03:42:31;13.10;56.80
44729;DHT22;30457;53.590;9.922;2023-04-29T03:46:57;13.00;56.70
44729;DHT22;30457;53.590;9.922;2023-04-29T03:51:23;13.00;56.80
44729;DHT22;30457;53.590;9.922;2023-04-29T03:55:52;13.00;56.90
44729;DHT22;30457;53.590;9.922;2023-04-29T04:00:18;12.90;56.70
44729;DHT22;30457;53.590;9.922;2023-04-29T04:04:48;12.90;56.60
44729;DHT22;30457;53.590;9.922;2023-04-29T04:09:14;12.90;56.80
44729;DHT22;30457;53.590;9.922;2023-04-29T04:13:41;12.90;56.90
44729;DHT22;30457;53.590;9.922;2023-04-29T04:18:07;12.90;56.90
44729;DHT22;30457;53.590;9.922;2023-04-29T04:22:34;12.90;56.80
44729;DHT22;30457;53.590;9.922;2023-04-29T04:27:15;12.80;56.70
44729;DHT22;30457;53.590;9.922;2023-04-29T04:31:45;12.80;56.80
44729;DHT22;30457;53.590;9.922;2023-04-29T04:36:11;12.80;56.90
44729;DHT22;30457;53.590;9.922;2023-04-29T04:40:40;12.80;57.00
44729;DHT22;30457;53.590;9.922;2023-04-29T04:45:19;12.80;57.30
44729;DHT22;30457;53.590;9.922;2023-04-29T04:49:49;12.80;57.20
44729;DHT22;30457;53.590;9.922;2023-04-29T04:54:15;12.80;57.20
44729;DHT22;30457;53.590;9.922;2023-04-29T04:58:41;12.80;57.20
44729;DHT22;30457;53.590;9.922;2023-04-29T05:03:07;12.80;57.20
44729;DHT22;30457;53.590;9.922;2023-04-29T05:07:32;12.80;57.10
44729;DHT22;30457;53.590;9.922;2023-04-29T05:12:03;12.90;57.40
44729;DHT22;30457;53.590;9.922;2023-04-29T05:16:31;12.90;57.40
44729;DHT22;30457;53.590;9.922;2023-04-29T05:20:57;13.00;57.50
44729;DHT22;30457;53.590;9.922;2023-04-29T05:25:24;13.00;58.00
44729;DHT22;30457;53.590;9.922;2023-04-29T05:29:52;13.10;57.60
44729;DHT22;30457;53.590;9.922;2023-04-29T05:34:18;13.10;57.70
44729;DHT22;30457;53.590;9.922;2023-04-29T05:38:44;13.20;57.60
44729;DHT22;30457;53.590;9.922;2023-04-29T05:43:09;13.30;57.60
44729;DHT22;30457;53.590;9.922;2023-04-29T05:47:36;13.40;57.50
44729;DHT22;30457;53.590;9.922;2023-04-29T05:52:01;13.50;57.40
44729;DHT22;30457;53.590;9.922;2023-04-29T05:56:31;13.60;57.10
44729;DHT22;30457;53.590;9.922;2023-04-29T06:00:56;13.70;56.80
44729;DHT22;30457;53.590;9.922;2023-04-29T06:05:24;13.80;56.50
44729;DHT22;30457;53.590;9.922;2023-04-29T06:10:18;13.90;56.60
44729;DHT22;30457;53.590;9.922;2023-04-29T06:14:44;13.90;56.00
44729;DHT22;30457;53.590;9.922;2023-04-29T06:19:10;13.90;56.90
44729;DHT22;30457;53.590;9.922;2023-04-29T06:23:35;14.00;56.20
44729;DHT22;30457;53.590;9.922;2023-04-29T06:28:06;14.10;56.10
44729;DHT22;30457;53.590;9.922;2023-04-29T06:32:33;14.30;56.40
44729;DHT22;30457;53.590;9.922;2023-04-29T06:36:58;14.40;56.20
44729;DHT22;30457;53.590;9.922;2023-04-29T06:41:40;14.50;56.00
44729;DHT22;30457;53.590;9.922;2023-04-29T06:46:24;14.60;55.30
44729;DHT22;30457;53.590;9.922;2023-04-29T06:51:19;14.70;55.40
44729;DHT22;30457;53.590;9.922;2023-04-29T06:55:45;14.90;55.20
44729;DHT22;30457;53.590;9.922;2023-04-29T07:00:11;15.00;55.60
44729;DHT22;30457;53.590;9.922;2023-04-29T07:04:37;15.10;55.20
44729;DHT22;30457;53.590;9.922;2023-04-29T07:09:02;15.20;55.00
44729;DHT22;30457;53.590;9.922;2023-04-29T07:13:28;15.40;54.90
44729;DHT22;30457;53.590;9.922;2023-04-29T07:17:54;15.60;54.40
44729;DHT22;30457;53.590;9.922;2023-04-29T07:22:20;15.70;53.50
44729;DHT22;30457;53.590;9.922;2023-04-29T07:26:46;15.90;53.60
44729;DHT22;30457;53.590;9.922;2023-04-29T07:31:14;16.00;53.50
44729;DHT22;30457;53.590;9.922;2023-04-29T07:35:39;16.20;53.20
44729;DHT22;30457;53.590;9.922;2023-04-29T07:40:08;16.30;52.80
44729;DHT22;30457;53.590;9.922;2023-04-29T07:44:34;16.50;52.90
44729;DHT22;30457;53.590;9.922;2023-04-29T07:49:01;16.70;52.00
44729;DHT22;30457;53.590;9.922;2023-04-29T07:53:26;16.80;51.10
44729;DHT22;30457;53.590;9.922;2023-04-29T07:57:52;17.00;51.60
44729;DHT22;30457;53.590;9.922;2023-04-29T08:02:18;17.20;51.10
44729;DHT22;30457;53.590;9.922;2023-04-29T08:06:45;17.30;50.80
44729;DHT22;30457;53.590;9.922;2023-04-29T08:11:18;17.50;49.90
44729;DHT22;30457;53.590;9.922;2023-04-29T08:15:44;17.70;49.70
44729;DHT22;30457;53.590;9.922;2023-04-29T08:20:10;17.90;49.70
44729;DHT22;30457;53.590;9.922;2023-04-29T08:24:36;18.10;48.90
44729;DHT22;30457;53.590;9.922;2023-04-29T08:29:01;18.20;48.30
44729;DHT22;30457;53.590;9.922;2023-04-29T08:33:28;18.30;47.80
44729;DHT22;30457;53.590;9.922;2023-04-29T08:37:53;18.40;47.60
44729;DHT22;30457;53.590;9.922;2023-04-29T08:42:31;18.50;47.20
44729;DHT22;30457;53.590;9.922;2023-04-29T08:46:58;18.60;46.40
44729;DHT22;30457;53.590;9.922;2023-04-29T08:51:24;18.60;46.60
44729;DHT22;30457;53.590;9.922;2023-04-29T08:55:51;18.80;47.30
44729;DHT22;30457;53.590;9.922;2023-04-29T09:00:17;18.90;46.90
44729;DHT22;30457;53.590;9.922;2023-04-29T09:04:50;19.00;46.70
44729;DHT22;30457;53.590;9.922;2023-04-29T09:09:17;19.20;45.50
44729;DHT22;30457;53.590;9.922;2023-04-29T09:13:43;19.30;46.20
44729;DHT22;30457;53.590;9.922;2023-04-29T09:18:09;19.40;45.70
44729;DHT22;30457;53.590;9.922;2023-04-29T09:22:51;19.60;46.00
44729;DHT22;30457;53.590;9.922;2023-04-29T09:27:27;19.70;44.50
44729;DHT22;30457;53.590;9.922;2023-04-29T09:31:53;19.90;43.20
44729;DHT22;30457;53.590;9.922;2023-04-29T09:36:42;20.00;44.40
44729;DHT22;30457;53.590;9.922;2023-04-29T09:41:09;20.20;43.60
44729;DHT22;30457;53.590;9.922;2023-04-29T09:45:42;20.30;44.40
44729;DHT22;30457;53.590;9.922;2023-04-29T09:50:11;20.50;43.50
44729;DHT22;30457;53.590;9.922;2023-04-29T09:54:39;20.70;43.30
44729;DHT22;30457;53.590;9.922;2023-04-29T09:59:08;20.80;42.80
44729;DHT22;30457;53.590;9.922;2023-04-29T10:03:36;21.00;42.30
44729;DHT22;30457;53.590;9.922;2023-04-29T10:08:01;21.20;42.20
44729;DHT22;30457;53.590;9.922;2023-04-29T10:12:28;21.40;42.10
44729;DHT22;30457;53.590;9.922;2023-04-29T10:17:32;21.50;41.00
44729;DHT22;30457;53.590;9.922;2023-04-29T10:21:57;21.70;41.60
44729;DHT22;30457;53.590;9.922;2023-04-29T10:26:28;21.90;41.20
44729;DHT22;30457;53.590;9.922;2023-04-29T10:30:54;22.00;39.90
44729;DHT22;30457;53.590;9.922;2023-04-29T10:35:22;22.20;40.00
44729;DHT22;30457;53.590;9.922;2023-04-29T10:39:55;22.30;39.60
44729;DHT22;30457;53.590;9.922;2023-04-29T10:44:24;22.40;39.90
44729;DHT22;30457;53.590;9.922;2023-04-29T10:48:50;22.50;39.30
44729;DHT22;30457;53.590;9.922;2023-04-29T10:53:20;22.60;38.30
44729;DHT22;30457;53.590;9.922;2023-04-29T10:57:46;22.70;37.40
44729;DHT22;30457;53.590;9.922;2023-04-29T11:02:11;22.70;36.90
44729;DHT22;30457;53.590;9.922;2023-04-29T11:06:41;22.70;38.00
44729;DHT22;30457;53.590;9.922;2023-04-29T11:11:08;22.80;38.30
44729;DHT22;30457;53.590;9.922;2023-04-29T11:15:34;22.80;37.40
44729;DHT22;30457;53.590;9.922;2023-04-29T11:19:59;22.80;37.20
44729;DHT22;30457;53.590;9.922;2023-04-29T11:24:25;22.80;37.00
44729;DHT22;30457;53.590;9.922;2023-04-29T11:28:51;22.80;37.80
44729;DHT22;30457;53.590;9.922;2023-04-29T11:33:21;22.90;37.70
44729;DHT22;30457;53.590;9.922;2023-04-29T11:37:46;23.00;37.20
44729;DHT22;30457;53.590;9.922;2023-04-29T11:42:12;23.10;36.40
44729;DHT22;30457;53.590;9.922;2023-04-29T11:46:37;23.20;36.60
44729;DHT22;30457;53.590;9.922;2023-04-29T11:51:05;23.30;36.00
44729;DHT22;30457;53.590;9.922;2023-04-29T11:55:31;23.40;36.00
44729;DHT22;30457;53.590;9.922;2023-04-29T11:59:57;23.40;36.00
44729;DHT22;30457;53.590;9.922;2023-04-29T12:04:23;23.50;35.50
44729;DHT22;30457;53.590;9.922;2023-04-29T12:08:50;23.50;35.20
44729;DHT22;30457;53.590;9.922;2023-04-29T12:13:17;23.50;35.30
44729;DHT22;30457;53.590;9.922;2023-04-29T12:17:43;23.50;35.10
44729;DHT22;30457;53.590;9.922;2023-04-29T12:22:10;23.60;35.60
44729;DHT22;30457;53.590;9.922;2023-04-29T12:26:39;23.70;35.50
44729;DHT22;30457;53.590;9.922;2023-04-29T12:31:04;23.80;34.80
44729;DHT22;30457;53.590;9.922;2023-04-29T12:35:30;23.70;34.60
44729;DHT22;30457;53.590;9.922;2023-04-29T12:39:56;23.70;34.70
44729;DHT22;30457;53.590;9.922;2023-04-29T12:44:22;23.50;34.70
44729;DHT22;30457;53.590;9.922;2023-04-29T12:48:47;23.50;34.80
44729;DHT22;30457;53.590;9.922;2023-04-29T12:53:13;23.50;35.40
44729;DHT22;30457;53.590;9.922;2023-04-29T12:57:38;23.50;35.40
44729;DHT22;30457;53.590;9.922;2023-04-29T13:02:04;23.60;35.20
44729;DHT22;30457;53.590;9.922;2023-04-29T13:06:30;23.70;34.50
44729;DHT22;30457;53.590;9.922;2023-04-29T13:10:56;23.70;34.20
44729;DHT22;30457;53.590;9.922;2023-04-29T13:15:22;23.60;33.40
44729;DHT22;30457;53.590;9.922;2023-04-29T13:19:47;23.60;34.10
44729;DHT22;30457;53.590;9.922;2023-04-29T13:24:13;23.60;33.60
44729;DHT22;30457;53.590;9.922;2023-04-29T13:28:39;23.60;33.30
44729;DHT22;30457;53.590;9.922;2023-04-29T13:33:05;23.70;33.90
44729;DHT22;30457;53.590;9.922;2023-04-29T13:37:31;23.80;33.20
44729;DHT22;30457;53.590;9.922;2023-04-29T13:41:56;23.90;32.90
44729;DHT22;30457;53.590;9.922;2023-04-29T13:46:22;24.10;33.20
44729;DHT22;30457;53.590;9.922;2023-04-29T13:50:48;24.10;32.20
44729;DHT22;30457;53.590;9.922;2023-04-29T13:55:13;24.20;31.90
44729;DHT22;30457;53.590;9.922;2023-04-29T13:59:39;24.20;32.20
44729;DHT22;30457;53.590;9.922;2023-04-29T14:04:04;24.20;32.50
44729;DHT22;30457;53.590;9.922;2023-04-29T14:08:30;24.20;32.20
44729;DHT22;30457;53.590;9.922;2023-04-29T14:12:56;24.20;32.40
44729;DHT22;30457;53.590;9.922;2023-04-29T14:17:21;24.30;31.50
44729;DHT22;30457;53.590;9.922;2023-04-29T14:21:47;24.30;30.60
44729;DHT22;30457;53.590;9.922;2023-04-29T14:26:12;24.20;31.20
44729;DHT22;30457;53.590;9.922;2023-04-29T14:30:38;24.10;31.10
44729;DHT22;30457;53.590;9.922;2023-04-29T14:35:04;24.00;30.50
44729;DHT22;30457;53.590;9.922;2023-04-29T14:39:30;23.90;31.10
44729;DHT22;30457;53.590;9.922;2023-04-29T14:43:55;23.80;30.60
44729;DHT22;30457;53.590;9.922;2023-04-29T14:48:21;23.70;30.90
44729;DHT22;30457;53.590;9.922;2023-04-29T14:52:46;23.50;32.10
44729;DHT22;30457;53.590;9.922;2023-04-29T14:57:12;23.50;32.20
44729;DHT22;30457;53.590;9.922;2023-04-29T15:01:37;23.30;32.20
44729;DHT22;30457;53.590;9.922;2023-04-29T15:06:04;23.10;32.00
44729;DHT22;30457;53.590;9.922;2023-04-29T15:10:30;22.90;33.20
44729;DHT22;30457;53.590;9.922;2023-04-29T15:14:55;22.80;34.10
44729;DHT22;30457;53.590;9.922;2023-04-29T15:19:21;22.60;34.20
44729;DHT22;30457;53.590;9.922;2023-04-29T15:23:49;22.50;34.00
44729;DHT22;30457;53.590;9.922;2023-04-29T15:28:15;22.50;34.20
44729;DHT22;30457;53.590;9.922;2023-04-29T15:32:40;22.40;34.00
44729;DHT22;30457;53.590;9.922;2023-04-29T15:37:06;22.20;34.40
44729;DHT22;30457;53.590;9.922;2023-04-29T15:41:32;22.00;34.30
44729;DHT22;30457;53.590;9.922;2023-04-29T15:45:58;21.70;35.00
44729;DHT22;30457;53.590;9.922;2023-04-29T15:50:24;21.50;35.10
44729;DHT22;30457;53.590;9.922;2023-04-29T15:54:50;21.40;35.10
44729;DHT22;30457;53.590;9.922;2023-04-29T15:59:16;21.30;35.80
44729;DHT22;30457;53.590;9.922;2023-04-29T16:03:41;21.30;35.70
44729;DHT22;30457;53.590;9.922;2023-04-29T16:08:07;21.30;35.20
44729;DHT22;30457;53.590;9.922;2023-04-29T16:12:32;21.20;35.10
44729;DHT22;30457;53.590;9.922;2023-04-29T16:16:58;21.10;35.00
44729;DHT22;30457;53.590;9.922;2023-04-29T16:21:24;21.10;35.40
44729;DHT22;30457;53.590;9.922;2023-04-29T16:25:50;20.90;34.80
44729;DHT22;30457;53.590;9.922;2023-04-29T16:30:15;20.80;34.60
44729;DHT22;30457;53.590;9.922;2023-04-29T16:34:41;20.60;34.80
44729;DHT22;30457;53.590;9.922;2023-04-29T16:39:06;20.40;35.20
44729;DHT22;30457;53.590;9.922;2023-04-29T16:43:32;20.30;35.70
44729;DHT22;30457;53.590;9.922;2023-04-29T16:47:59;20.20;35.40
44729;DHT22;30457;53.590;9.922;2023-04-29T16:52:25;20.20;35.90
44729;DHT22;30457;53.590;9.922;2023-04-29T16:56:51;20.20;35.70
44729;DHT22;30457;53.590;9.922;2023-04-29T17:01:16;20.20;34.70
44729;DHT22;30457;53.590;9.922;2023-04-29T17:05:45;20.20;34.70
44729;DHT22;30457;53.590;9.922;2023-04-29T17:10:11;20.20;34.60
44729;DHT22;30457;53.590;9.922;2023-04-29T17:14:36;20.30;34.70
44729;DHT22;30457;53.590;9.922;2023-04-29T17:19:02;20.30;34.80
44729;DHT22;30457;53.590;9.922;2023-04-29T17:23:27;20.40;34.90
44729;DHT22;30457;53.590;9.922;2023-04-29T17:27:54;20.30;34.70
44729;DHT22;30457;53.590;9.922;2023-04-29T17:32:20;20.20;34.50
44729;DHT22;30457;53.590;9.922;2023-04-29T17:36:52;20.10;34.20
44729;DHT22;30457;53.590;9.922;2023-04-29T17:41:18;19.80;33.80
44729;DHT22;30457;53.590;9.922;2023-04-29T17:45:43;19.60;33.80
44729;DHT22;30457;53.590;9.922;2023-04-29T17:50:09;19.30;33.90
44729;DHT22;30457;53.590;9.922;2023-04-29T17:54:38;19.10;34.20
44729;DHT22;30457;53.590;9.922;2023-04-29T17:59:04;18.80;34.70
44729;DHT22;30457;53.590;9.922;2023-04-29T18:03:29;18.50;35.20
44729;DHT22;30457;53.590;9.922;2023-04-29T18:07:55;18.30;35.50
44729;DHT22;30457;53.590;9.922;2023-04-29T18:12:20;18.20;36.00
44729;DHT22;30457;53.590;9.922;2023-04-29T18:16:46;18.00;36.10
44729;DHT22;30457;53.590;9.922;2023-04-29T18:21:18;17.80;36.60
44729;DHT22;30457;53.590;9.922;2023-04-29T18:25:45;17.60;36.90
44729;DHT22;30457;53.590;9.922;2023-04-29T18:30:10;17.50;37.30
44729;DHT22;30457;53.590;9.922;2023-04-29T18:34:36;17.30;37.50
44729;DHT22;30457;53.590;9.922;2023-04-29T18:39:02;17.10;37.80
44729;DHT22;30457;53.590;9.922;2023-04-29T18:43:27;16.90;38.10
44729;DHT22;30457;53.590;9.922;2023-04-29T18:47:53;16.70;38.50
44729;DHT22;30457;53.590;9.922;2023-04-29T18:52:19;16.50;38.90
44729;DHT22;30457;53.590;9.922;2023-04-29T18:56:46;16.40;39.10
44729;DHT22;30457;53.590;9.922;2023-04-29T19:01:12;16.30;39.50
44729;DHT22;30457;53.590;9.922;2023-04-29T19:05:38;16.10;39.60
44729;DHT22;30457;53.590;9.922;2023-04-29T19:10:04;16.00;40.10
44729;DHT22;30457;53.590;9.922;2023-04-29T19:14:30;15.90;40.20
44729;DHT22;30457;53.590;9.922;2023-04-29T19:18:58;15.90;40.20
44729;DHT22;30457;53.590;9.922;2023-04-29T19:23:23;15.70;40.10
44729;DHT22;30457;53.590;9.922;2023-04-29T19:27:49;15.70;40.20
44729;DHT22;30457;53.590;9.922;2023-04-29T19:32:15;15.50;40.40
44729;DHT22;30457;53.590;9.922;2023-04-29T19:36:40;15.40;40.60
44729;DHT22;30457;53.590;9.922;2023-04-29T19:41:06;15.30;40.70
44729;DHT22;30457;53.590;9.922;2023-04-29T19:45:31;15.20;40.70
44729;DHT22;30457;53.590;9.922;2023-04-29T19:49:57;15.20;40.70
44729;DHT22;30457;53.590;9.922;2023-04-29T19:54:23;15.00;40.50
44729;DHT22;30457;53.590;9.922;2023-04-29T19:58:49;15.00;40.60
44729;DHT22;30457;53.590;9.922;2023-04-29T20:03:14;14.90;40.70
44729;DHT22;30457;53.590;9.922;2023-04-29T20:07:40;14.80;40.80
44729;DHT22;30457;53.590;9.922;2023-04-29T20:12:06;14.70;40.80
44729;DHT22;30457;53.590;9.922;2023-04-29T20:16:32;14.50;41.20
44729;DHT22;30457;53.590;9.922;2023-04-29T20:20:59;14.50;41.40
44729;DHT22;30457;53.590;9.922;2023-04-29T20:25:26;14.40;41.50
44729;DHT22;30457;53.590;9.922;2023-04-29T20:29:51;14.30;41.70
44729;DHT22;30457;53.590;9.922;2023-04-29T20:34:17;14.20;41.70
44729;DHT22;30457;53.590;9.922;2023-04-29T20:38:42;14.10;41.90
44729;DHT22;30457;53.590;9.922;2023-04-29T20:43:08;14.00;41.90
44729;DHT22;30457;53.590;9.922;2023-04-29T20:47:34;13.90;42.00
44729;DHT22;30457;53.590;9.922;2023-04-29T20:51:59;13.80;42.00
44729;DHT22;30457;53.590;9.922;2023-04-29T20:56:25;13.70;42.10
44729;DHT22;30457;53.590;9.922;2023-04-29T21:00:51;13.70;42.20
44729;DHT22;30457;53.590;9.922;2023-04-29T21:05:16;13.60;42.30
44729;DHT22;30457;53.590;9.922;2023-04-29T21:09:42;13.50;42.50
44729;DHT22;30457;53.590;9.922;2023-04-29T21:14:07;13.40;42.40
44729;DHT22;30457;53.590;9.922;2023-04-29T21:18:33;13.40;42.60
44729;DHT22;30457;53.590;9.922;2023-04-29T21:22:59;13.30;42.70
44729;DHT22;30457;53.590;9.922;2023-04-29T21:27:24;13.20;42.70
44729;DHT22;30457;53.590;9.922;2023-04-29T21:31:50;13.10;42.80
44729;DHT22;30457;53.590;9.922;2023-04-29T21:36:15;13.10;43.00
44729;DHT22;30457;53.590;9.922;2023-04-29T21:40:41;13.00;43.10
44729;DHT22;30457;53.590;9.922;2023-04-29T21:45:07;12.90;43.40
44729;DHT22;30457;53.590;9.922;2023-04-29T21:49:33;12.90;43.60
44729;DHT22;30457;53.590;9.922;2023-04-29T21:53:58;12.80;43.70
44729;DHT22;30457;53.590;9.922;2023-04-29T21:58:24;12.80;43.70
44729;DHT22;30457;53.590;9.922;2023-04-29T22:02:50;12.80;43.90
44729;DHT22;30457;53.590;9.922;2023-04-29T22:07:15;12.80;44.00
44729;DHT22;30457;53.590;9.922;2023-04-29T22:11:41;12.70;44.60
44729;DHT22;30457;53.590;9.922;2023-04-29T22:16:08;12.60;44.10
44729;DHT22;30457;53.590;9.922;2023-04-29T22:20:33;12.60;44.30
44729;DHT22;30457;53.590;9.922;2023-04-29T22:24:59;12.60;44.30
44729;DHT22;30457;53.590;9.922;2023-04-29T22:29:24;12.50;44.40
44729;DHT22;30457;53.590;9.922;2023-04-29T22:33:50;12.40;44.50
44729;DHT22;30457;53.590;9.922;2023-04-29T22:38:16;12.40;44.60
44729;DHT22;30457;53.590;9.922;2023-04-29T22:42:41;12.30;44.70
44729;DHT22;30457;53.590;9.922;2023-04-29T22:47:07;12.30;44.80
44729;DHT22;30457;53.590;9.922;2023-04-29T22:51:32;12.20;45.30
44729;DHT22;30457;53.590;9.922;2023-04-29T22:55:58;12.10;44.90
44729;DHT22;30457;53.590;9.922;2023-04-29T23:00:24;12.00;44.90
44729;DHT22;30457;53.590;9.922;2023-04-29T23:04:49;12.00;45.10
44729;DHT22;30457;53.590;9.922;2023-04-29T23:09:15;12.00;45.20
44729;DHT22;30457;53.590;9.922;2023-04-29T23:13:41;11.90;45.20
44729;DHT22;30457;53.590;9.922;2023-04-29T23:18:06;11.90;45.40
44729;DHT22;30457;53.590;9.922;2023-04-29T23:22:32;11.80;45.40
44729;DHT22;30457;53.590;9.922;2023-04-29T23:26:57;11.80;45.50
44729;DHT22;30457;53.590;9.922;2023-04-29T23:31:23;11.70;45.50
44729;DHT22;30457;53.590;9.922;2023-04-29T23:35:50;11.70;45.50
44729;DHT22;30457;53.590;9.922;2023-04-29T23:40:15;11.60;45.50
44729;DHT22;30457;53.590;9.922;2023-04-29T23:44:41;11.50;45.60
44729;DHT22;30457;53.590;9.922;2023-04-29T23:49:07;11.50;45.70
44729;DHT22;30457;53.590;9.922;2023-04-29T23:53:33;11.50;45.90
44729;DHT22;30457;53.590;9.922;2023-04-29T23:57:59;11.40;46.10
